sensor_id;sensor_type;location;lat;lon;timestamp;pressure;altitude;pressure_sealevel;temperature;humidity
40502;BME280;29631;49.168;9.848;2022-11-20T00:01:16;96104.28;;;11.38;86.41
40502;BME280;29631;49.168;9.848;2022-11-20T00:03:42;96088.66;;;11.37;86.10
40502;BME280;29631;49.168;9.848;2022-11-20T00:06:11;96030.56;;;10.96;86.38
40502;BME280;29631;49.168;9.848;2022-11-20T00:08:38;96056.44;;;11.17;86.89
40502;BME280;29631;49.168;9.848;2022-11-20T00:11:12;96075.09;;;11.33;86.32
40502;BME280;29631;49.168;9.848;2022-11-20T00:13:39;96087.63;;;11.38;85.92
40502;BME280;29631;49.168;9.848;2022-11-20T00:16:08;96077.91;;;11.38;86.66
40502;BME280;29631;49.168;9.848;2022-11-20T00:18:35;96049.72;;;11.21;86.41
40502;BME280;29631;49.168;9.848;2022-11-20T00:21:06;96061.53;;;11.30;86.84
40502;BME280;29631;49.168;9.848;2022-11-20T00:23:33;96070.66;;;11.34;86.77
40502;BME280;29631;49.168;9.848;2022-11-20T00:26:07;96048.69;;;11.22;86.49
40502;BME280;29631;49.168;9.848;2022-11-20T00:28:33;96066.16;;;11.34;86.53
40502;BME280;29631;49.168;9.848;2022-11-20T00:31:12;96091.56;;;11.47;86.13
40502;BME280;29631;49.168;9.848;2022-11-20T00:33:39;96089.38;;;11.44;86.60
40502;BME280;29631;49.168;9.848;2022-11-20T00:36:16;96090.41;;;11.43;86.60
40502;BME280;29631;49.168;9.848;2022-11-20T00:38:43;96083.06;;;11.45;86.55
40502;BME280;29631;49.168;9.848;2022-11-20T00:41:12;96048.47;;;11.23;86.75
40502;BME280;29631;49.168;9.848;2022-11-20T00:43:39;96089.97;;;11.46;86.71
40502;BME280;29631;49.168;9.848;2022-11-20T00:46:15;96073.41;;;11.39;86.30
40502;BME280;29631;49.168;9.848;2022-11-20T00:48:42;96076.72;;;11.34;87.53
40502;BME280;29631;49.168;9.848;2022-11-20T00:51:08;96082.81;;;11.35;86.76
40502;BME280;29631;49.168;9.848;2022-11-20T00:53:34;96090.84;;;11.40;86.45
40502;BME280;29631;49.168;9.848;2022-11-20T00:56:06;96075.34;;;11.32;86.52
40502;BME280;29631;49.168;9.848;2022-11-20T00:58:36;96087.56;;;11.44;87.20
40502;BME280;29631;49.168;9.848;2022-11-20T01:01:17;96084.09;;;11.44;86.78
40502;BME280;29631;49.168;9.848;2022-11-20T01:03:47;96087.09;;;11.47;86.88
40502;BME280;29631;49.168;9.848;2022-11-20T01:06:32;96096.38;;;11.50;86.82
40502;BME280;29631;49.168;9.848;2022-11-20T01:09:06;96084.56;;;11.41;86.26
40502;BME280;29631;49.168;9.848;2022-11-20T01:11:37;96086.72;;;11.44;87.34
40502;BME280;29631;49.168;9.848;2022-11-20T01:14:06;96094.09;;;11.42;87.31
40502;BME280;29631;49.168;9.848;2022-11-20T01:16:38;96099.72;;;11.45;87.24
40502;BME280;29631;49.168;9.848;2022-11-20T01:19:07;96106.94;;;11.50;87.07
40502;BME280;29631;49.168;9.848;2022-11-20T01:21:38;96108.78;;;11.49;86.76
40502;BME280;29631;49.168;9.848;2022-11-20T01:24:06;96094.09;;;11.42;87.46
40502;BME280;29631;49.168;9.848;2022-11-20T01:26:37;96096.13;;;11.40;87.58
40502;BME280;29631;49.168;9.848;2022-11-20T01:29:04;96095.13;;;11.41;86.79
40502;BME280;29631;49.168;9.848;2022-11-20T01:31:36;96099.25;;;11.48;86.80
40502;BME280;29631;49.168;9.848;2022-11-20T01:34:05;96095.84;;;11.48;87.35
40502;BME280;29631;49.168;9.848;2022-11-20T01:36:33;96090.63;;;11.41;87.42
40502;BME280;29631;49.168;9.848;2022-11-20T01:39:03;96082.81;;;11.35;86.76
40502;BME280;29631;49.168;9.848;2022-11-20T01:41:31;96086.47;;;11.34;87.27
40502;BME280;29631;49.168;9.848;2022-11-20T01:44:21;96091.66;;;11.40;87.63
40502;BME280;29631;49.168;9.848;2022-11-20T01:47:03;96085.22;;;11.36;86.80
40502;BME280;29631;49.168;9.848;2022-11-20T01:49:50;96065.53;;;11.21;87.33
40502;BME280;29631;49.168;9.848;2022-11-20T01:52:22;96072.69;;;11.32;87.46
40502;BME280;29631;49.168;9.848;2022-11-20T01:55:00;96074.91;;;11.35;87.07
40502;BME280;29631;49.168;9.848;2022-11-20T01:57:28;96084.09;;;11.44;87.20
40502;BME280;29631;49.168;9.848;2022-11-20T02:00:04;96074.44;;;11.38;86.99
40502;BME280;29631;49.168;9.848;2022-11-20T02:02:32;96072.25;;;11.35;87.23
40502;BME280;29631;49.168;9.848;2022-11-20T02:05:05;96074.56;;;11.43;87.62
40502;BME280;29631;49.168;9.848;2022-11-20T02:07:32;96096.59;;;11.55;87.39
40502;BME280;29631;49.168;9.848;2022-11-20T02:09:58;96082.84;;;11.46;87.64
40502;BME280;29631;49.168;9.848;2022-11-20T02:12:24;96047.78;;;11.28;87.62
40502;BME280;29631;49.168;9.848;2022-11-20T02:15:09;96075.75;;;11.47;87.45
40502;BME280;29631;49.168;9.848;2022-11-20T02:17:35;96083.44;;;11.48;87.58
40502;BME280;29631;49.168;9.848;2022-11-20T02:20:01;96067.00;;;11.46;86.65
40502;BME280;29631;49.168;9.848;2022-11-20T02:22:33;96017.78;;;11.11;86.69
40502;BME280;29631;49.168;9.848;2022-11-20T02:25:02;96058.28;;;11.46;87.30
40502;BME280;29631;49.168;9.848;2022-11-20T02:27:29;96077.63;;;11.57;87.08
40502;BME280;29631;49.168;9.848;2022-11-20T02:30:00;96084.66;;;11.63;87.85
40502;BME280;29631;49.168;9.848;2022-11-20T02:32:35;96059.41;;;11.56;87.87
40502;BME280;29631;49.168;9.848;2022-11-20T02:35:09;96066.28;;;11.57;87.10
40502;BME280;29631;49.168;9.848;2022-11-20T02:37:38;96068.25;;;11.61;87.46
40502;BME280;29631;49.168;9.848;2022-11-20T02:40:06;96061.38;;;11.60;87.21
40502;BME280;29631;49.168;9.848;2022-11-20T02:42:32;96067.09;;;11.57;87.34
40502;BME280;29631;49.168;9.848;2022-11-20T02:44:58;96051.72;;;11.55;87.33
40502;BME280;29631;49.168;9.848;2022-11-20T02:47:24;96065.03;;;11.59;87.98
40502;BME280;29631;49.168;9.848;2022-11-20T02:49:49;96067.91;;;11.58;88.16
40502;BME280;29631;49.168;9.848;2022-11-20T02:52:15;96061.69;;;11.53;88.19
40502;BME280;29631;49.168;9.848;2022-11-20T02:54:41;96036.22;;;11.40;88.21
40502;BME280;29631;49.168;9.848;2022-11-20T02:57:06;96058.94;;;11.59;87.80
40502;BME280;29631;49.168;9.848;2022-11-20T02:59:32;96070.44;;;11.64;88.58
40502;BME280;29631;49.168;9.848;2022-11-20T03:01:58;96069.13;;;11.56;87.90
40502;BME280;29631;49.168;9.848;2022-11-20T03:04:24;96042.75;;;11.38;88.40
40502;BME280;29631;49.168;9.848;2022-11-20T03:06:49;96061.97;;;11.45;88.75
40502;BME280;29631;49.168;9.848;2022-11-20T03:09:15;96048.16;;;11.43;88.45
40502;BME280;29631;49.168;9.848;2022-11-20T03:11:41;96065.19;;;11.47;89.15
40502;BME280;29631;49.168;9.848;2022-11-20T03:14:06;96037.13;;;11.34;89.12
40502;BME280;29631;49.168;9.848;2022-11-20T03:16:32;96063.34;;;11.47;88.54
40502;BME280;29631;49.168;9.848;2022-11-20T03:18:58;96058.72;;;11.43;89.27
40502;BME280;29631;49.168;9.848;2022-11-20T03:21:24;96042.63;;;11.33;89.20
40502;BME280;29631;49.168;9.848;2022-11-20T03:23:50;96024.94;;;11.22;88.71
40502;BME280;29631;49.168;9.848;2022-11-20T03:26:26;96067.69;;;11.42;89.58
40502;BME280;29631;49.168;9.848;2022-11-20T03:28:55;96055.53;;;11.41;89.00
40502;BME280;29631;49.168;9.848;2022-11-20T03:31:25;96057.69;;;11.44;89.67
40502;BME280;29631;49.168;9.848;2022-11-20T03:33:52;96039.78;;;11.34;89.90
40502;BME280;29631;49.168;9.848;2022-11-20T03:36:20;96024.03;;;11.28;89.46
40502;BME280;29631;49.168;9.848;2022-11-20T03:38:46;96049.22;;;11.42;89.95
40502;BME280;29631;49.168;9.848;2022-11-20T03:41:18;96036.56;;;11.32;90.23
40502;BME280;29631;49.168;9.848;2022-11-20T03:43:53;96055.41;;;11.47;89.79
40502;BME280;29631;49.168;9.848;2022-11-20T03:46:20;96041.06;;;11.43;89.90
40502;BME280;29631;49.168;9.848;2022-11-20T03:48:46;96053.59;;;11.48;89.94
40502;BME280;29631;49.168;9.848;2022-11-20T03:53:42;96055.53;;;11.41;89.94
40502;BME280;29631;49.168;9.848;2022-11-20T03:56:09;96021.28;;;11.23;90.05
40502;BME280;29631;49.168;9.848;2022-11-20T03:58:38;96036.22;;;11.29;90.41
40502;BME280;29631;49.168;9.848;2022-11-20T04:01:14;96045.16;;;11.28;89.73
40502;BME280;29631;49.168;9.848;2022-11-20T04:03:41;96029.63;;;11.20;90.80
40502;BME280;29631;49.168;9.848;2022-11-20T04:08:36;96050.88;;;11.25;90.21
40502;BME280;29631;49.168;9.848;2022-11-20T04:11:13;96047.06;;;11.21;91.29
40502;BME280;29631;49.168;9.848;2022-11-20T04:13:41;96049.25;;;11.24;90.63
40502;BME280;29631;49.168;9.848;2022-11-20T04:16:09;96050.44;;;11.28;91.26
40502;BME280;29631;49.168;9.848;2022-11-20T04:18:35;96048.81;;;11.27;90.91
40502;BME280;29631;49.168;9.848;2022-11-20T04:21:02;96044.34;;;11.27;90.63
40502;BME280;29631;49.168;9.848;2022-11-20T04:23:28;96045.03;;;11.34;90.60
40502;BME280;29631;49.168;9.848;2022-11-20T04:25:54;96026.09;;;11.26;90.42
40502;BME280;29631;49.168;9.848;2022-11-20T04:28:20;96014.47;;;11.15;91.02
40502;BME280;29631;49.168;9.848;2022-11-20T04:30:46;96047.84;;;11.39;91.31
40502;BME280;29631;49.168;9.848;2022-11-20T04:33:12;96030.94;;;11.29;91.03
40502;BME280;29631;49.168;9.848;2022-11-20T04:35:38;96027.25;;;11.30;90.52
40502;BME280;29631;49.168;9.848;2022-11-20T04:38:04;96031.66;;;11.36;90.53
40502;BME280;29631;49.168;9.848;2022-11-20T04:40:30;96030.59;;;11.37;90.84
40502;BME280;29631;49.168;9.848;2022-11-20T04:42:56;96040.25;;;11.43;91.63
40502;BME280;29631;49.168;9.848;2022-11-20T04:45:25;96014.63;;;11.32;91.44
40502;BME280;29631;49.168;9.848;2022-11-20T04:47:50;96009.59;;;11.30;91.38
40502;BME280;29631;49.168;9.848;2022-11-20T04:50:16;96010.91;;;11.39;91.76
40502;BME280;29631;49.168;9.848;2022-11-20T04:52:42;96019.22;;;11.54;91.38
40502;BME280;29631;49.168;9.848;2022-11-20T04:55:08;95969.06;;;11.13;90.95
40502;BME280;29631;49.168;9.848;2022-11-20T04:57:34;95998.63;;;11.45;91.02
40502;BME280;29631;49.168;9.848;2022-11-20T04:59:59;96009.13;;;11.51;91.41
40502;BME280;29631;49.168;9.848;2022-11-20T05:02:25;96023.94;;;11.63;90.93
40502;BME280;29631;49.168;9.848;2022-11-20T05:04:51;96033.22;;;11.66;90.09
40502;BME280;29631;49.168;9.848;2022-11-20T05:07:17;96027.84;;;11.61;91.47
40502;BME280;29631;49.168;9.848;2022-11-20T05:09:42;95977.22;;;11.23;91.25
40502;BME280;29631;49.168;9.848;2022-11-20T05:12:09;96034.03;;;11.55;90.86
40502;BME280;29631;49.168;9.848;2022-11-20T05:14:34;96048.72;;;11.51;90.90
40502;BME280;29631;49.168;9.848;2022-11-20T05:17:00;96043.72;;;11.43;92.04
40502;BME280;29631;49.168;9.848;2022-11-20T05:19:26;96041.31;;;11.42;91.54
40502;BME280;29631;49.168;9.848;2022-11-20T05:21:52;96009.91;;;11.22;91.33
40502;BME280;29631;49.168;9.848;2022-11-20T05:24:17;96013.38;;;11.23;91.66
40502;BME280;29631;49.168;9.848;2022-11-20T05:26:43;96036.94;;;11.36;92.37
40502;BME280;29631;49.168;9.848;2022-11-20T05:29:11;96021.41;;;11.28;91.29
40502;BME280;29631;49.168;9.848;2022-11-20T05:31:40;96010.72;;;11.23;92.41
40502;BME280;29631;49.168;9.848;2022-11-20T05:34:06;96021.28;;;11.23;91.06
40502;BME280;29631;49.168;9.848;2022-11-20T05:36:32;96048.22;;;11.25;91.52
40502;BME280;29631;49.168;9.848;2022-11-20T05:38:58;96042.38;;;11.23;92.12
40502;BME280;29631;49.168;9.848;2022-11-20T05:41:24;96028.31;;;11.11;91.52
40502;BME280;29631;49.168;9.848;2022-11-20T05:43:50;96023.16;;;11.04;92.01
40502;BME280;29631;49.168;9.848;2022-11-20T05:46:19;95995.88;;;10.81;91.83
40502;BME280;29631;49.168;9.848;2022-11-20T05:48:46;96063.56;;;11.16;91.87
40502;BME280;29631;49.168;9.848;2022-11-20T05:51:16;96042.56;;;11.10;91.95
40502;BME280;29631;49.168;9.848;2022-11-20T05:53:42;96018.41;;;10.95;91.29
40502;BME280;29631;49.168;9.848;2022-11-20T05:56:12;96036.09;;;11.06;91.48
40502;BME280;29631;49.168;9.848;2022-11-20T05:58:38;95977.72;;;10.73;91.98
40502;BME280;29631;49.168;9.848;2022-11-20T06:01:14;95987.22;;;10.74;92.15
40502;BME280;29631;49.168;9.848;2022-11-20T06:03:41;96026.38;;;11.06;91.36
40502;BME280;29631;49.168;9.848;2022-11-20T06:06:13;96041.66;;;11.16;91.22
40502;BME280;29631;49.168;9.848;2022-11-20T06:08:40;96038.34;;;11.20;92.02
40502;BME280;29631;49.168;9.848;2022-11-20T06:11:08;96048.69;;;11.22;91.82
40502;BME280;29631;49.168;9.848;2022-11-20T06:13:34;96038.84;;;11.29;91.38
40502;BME280;29631;49.168;9.848;2022-11-20T06:16:01;96021.28;;;11.23;91.55
40502;BME280;29631;49.168;9.848;2022-11-20T06:18:28;96041.31;;;11.42;91.75
40502;BME280;29631;49.168;9.848;2022-11-20T06:21:21;96039.38;;;11.49;92.16
40502;BME280;29631;49.168;9.848;2022-11-20T06:23:48;96045.84;;;11.53;90.91
40502;BME280;29631;49.168;9.848;2022-11-20T06:26:26;96050.22;;;11.58;92.00
40502;BME280;29631;49.168;9.848;2022-11-20T06:28:53;96029.69;;;11.60;91.32
40502;BME280;29631;49.168;9.848;2022-11-20T06:31:22;96038.31;;;11.67;91.52
40502;BME280;29631;49.168;9.848;2022-11-20T06:33:48;96034.28;;;11.76;91.04
40502;BME280;29631;49.168;9.848;2022-11-20T06:36:17;96020.38;;;11.69;91.78
40502;BME280;29631;49.168;9.848;2022-11-20T06:38:43;96039.00;;;11.86;90.81
40502;BME280;29631;49.168;9.848;2022-11-20T06:41:14;96020.19;;;11.71;90.77
40502;BME280;29631;49.168;9.848;2022-11-20T06:43:40;96050.97;;;11.88;91.16
40502;BME280;29631;49.168;9.848;2022-11-20T06:46:06;96032.59;;;11.82;91.17
40502;BME280;29631;49.168;9.848;2022-11-20T06:48:32;96037.41;;;11.85;91.43
40502;BME280;29631;49.168;9.848;2022-11-20T06:50:58;96048.56;;;11.98;91.34
40502;BME280;29631;49.168;9.848;2022-11-20T06:53:24;96056.97;;;12.07;92.04
40502;BME280;29631;49.168;9.848;2022-11-20T06:55:51;96060.19;;;12.09;91.47
40502;BME280;29631;49.168;9.848;2022-11-20T06:58:17;96058.56;;;12.08;91.17
40502;BME280;29631;49.168;9.848;2022-11-20T07:00:44;96004.69;;;11.74;91.70
40502;BME280;29631;49.168;9.848;2022-11-20T07:03:11;96061.56;;;12.11;91.41
40502;BME280;29631;49.168;9.848;2022-11-20T07:05:37;96068.78;;;12.04;91.10
40502;BME280;29631;49.168;9.848;2022-11-20T07:08:04;96071.19;;;12.06;91.51
40502;BME280;29631;49.168;9.848;2022-11-20T07:10:31;96057.19;;;11.94;91.54
40502;BME280;29631;49.168;9.848;2022-11-20T07:12:57;96085.34;;;12.11;92.11
40502;BME280;29631;49.168;9.848;2022-11-20T07:15:24;96056.63;;;12.03;91.55
40502;BME280;29631;49.168;9.848;2022-11-20T07:17:50;96064.56;;;12.15;91.27
40502;BME280;29631;49.168;9.848;2022-11-20T07:20:16;96074.56;;;12.24;91.98
40502;BME280;29631;49.168;9.848;2022-11-20T07:22:42;96087.44;;;12.21;91.59
40502;BME280;29631;49.168;9.848;2022-11-20T07:25:09;96068.59;;;12.17;91.08
40502;BME280;29631;49.168;9.848;2022-11-20T07:27:36;96035.38;;;11.98;90.72
40502;BME280;29631;49.168;9.848;2022-11-20T07:30:03;96084.78;;;12.21;91.76
40502;BME280;29631;49.168;9.848;2022-11-20T07:32:29;96067.09;;;12.10;91.72
40502;BME280;29631;49.168;9.848;2022-11-20T07:34:55;96076.84;;;12.09;91.52
40502;BME280;29631;49.168;9.848;2022-11-20T07:37:21;96046.72;;;11.87;90.95
40502;BME280;29631;49.168;9.848;2022-11-20T07:39:46;96068.44;;;12.01;91.63
40502;BME280;29631;49.168;9.848;2022-11-20T07:42:12;96079.81;;;12.01;91.95
40502;BME280;29631;49.168;9.848;2022-11-20T07:44:38;96065.22;;;11.87;91.35
40502;BME280;29631;49.168;9.848;2022-11-20T07:47:04;96073.25;;;11.92;90.88
40502;BME280;29631;49.168;9.848;2022-11-20T07:49:30;96047.81;;;11.68;91.22
40502;BME280;29631;49.168;9.848;2022-11-20T07:51:56;96082.09;;;11.86;91.86
40502;BME280;29631;49.168;9.848;2022-11-20T07:54:22;96063.22;;;11.71;91.08
40502;BME280;29631;49.168;9.848;2022-11-20T07:56:48;96069.75;;;11.69;91.78
40502;BME280;29631;49.168;9.848;2022-11-20T07:59:14;96069.72;;;11.57;91.10
40502;BME280;29631;49.168;9.848;2022-11-20T08:01:42;96092.56;;;11.63;91.00
40502;BME280;29631;49.168;9.848;2022-11-20T08:04:08;96072.50;;;11.45;91.50
40502;BME280;29631;49.168;9.848;2022-11-20T08:06:36;96068.44;;;11.31;91.26
40502;BME280;29631;49.168;9.848;2022-11-20T08:09:02;96075.91;;;11.34;91.95
40502;BME280;29631;49.168;9.848;2022-11-20T08:11:28;96082.09;;;11.28;91.66
40502;BME280;29631;49.168;9.848;2022-11-20T08:14:12;96092.72;;;11.21;90.78
40502;BME280;29631;49.168;9.848;2022-11-20T08:16:40;96057.97;;;10.95;91.46
40502;BME280;29631;49.168;9.848;2022-11-20T08:19:06;96075.41;;;10.96;91.74
40502;BME280;29631;49.168;9.848;2022-11-20T08:21:32;96084.94;;;10.97;91.59
40502;BME280;29631;49.168;9.848;2022-11-20T08:23:59;96073.66;;;10.90;91.35
40502;BME280;29631;49.168;9.848;2022-11-20T08:26:25;96075.97;;;10.80;92.33
40502;BME280;29631;49.168;9.848;2022-11-20T08:28:58;96071.00;;;10.72;92.26
40502;BME280;29631;49.168;9.848;2022-11-20T08:31:26;96077.47;;;10.76;92.20
40502;BME280;29631;49.168;9.848;2022-11-20T08:33:52;96071.00;;;10.54;92.55
40502;BME280;29631;49.168;9.848;2022-11-20T08:36:19;96080.38;;;10.68;91.79
40502;BME280;29631;49.168;9.848;2022-11-20T08:38:54;96085.97;;;10.78;91.83
40502;BME280;29631;49.168;9.848;2022-11-20T08:41:21;96097.22;;;10.85;92.22
40502;BME280;29631;49.168;9.848;2022-11-20T08:44:00;96093.56;;;10.86;92.80
40502;BME280;29631;49.168;9.848;2022-11-20T08:46:31;96091.94;;;10.85;92.72
40502;BME280;29631;49.168;9.848;2022-11-20T08:48:58;96091.50;;;10.88;92.05
40502;BME280;29631;49.168;9.848;2022-11-20T08:51:24;96074.22;;;10.74;92.23
40502;BME280;29631;49.168;9.848;2022-11-20T08:53:50;96079.56;;;10.85;92.92
40502;BME280;29631;49.168;9.848;2022-11-20T08:56:16;96073.44;;;10.74;92.74
40502;BME280;29631;49.168;9.848;2022-11-20T08:58:42;96091.50;;;10.88;92.39
40502;BME280;29631;49.168;9.848;2022-11-20T09:01:08;96075.41;;;10.78;92.89
40502;BME280;29631;49.168;9.848;2022-11-20T09:03:35;96071.16;;;10.77;92.08
40502;BME280;29631;49.168;9.848;2022-11-20T09:06:04;96079.81;;;10.84;92.12
40502;BME280;29631;49.168;9.848;2022-11-20T09:08:30;96064.50;;;10.75;92.82
40502;BME280;29631;49.168;9.848;2022-11-20T09:10:58;96083.81;;;10.86;92.49
40502;BME280;29631;49.168;9.848;2022-11-20T09:13:26;96074.97;;;10.81;92.85
40502;BME280;29631;49.168;9.848;2022-11-20T09:15:57;96079.22;;;10.82;93.38
40502;BME280;29631;49.168;9.848;2022-11-20T09:18:25;96079.81;;;10.84;92.30
40502;BME280;29631;49.168;9.848;2022-11-20T09:20:56;96097.50;;;10.95;92.60
40502;BME280;29631;49.168;9.848;2022-11-20T09:23:22;96094.00;;;11.01;92.97
40502;BME280;29631;49.168;9.848;2022-11-20T09:25:48;96098.25;;;11.02;92.70
40502;BME280;29631;49.168;9.848;2022-11-20T09:28:13;96090.56;;;11.00;92.83
40502;BME280;29631;49.168;9.848;2022-11-20T09:30:39;96083.31;;;10.96;93.56
40502;BME280;29631;49.168;9.848;2022-11-20T09:33:05;96085.19;;;11.07;93.52
40502;BME280;29631;49.168;9.848;2022-11-20T09:35:32;96086.34;;;11.11;93.85
40502;BME280;29631;49.168;9.848;2022-11-20T09:38:03;96093.97;;;11.19;93.92
40502;BME280;29631;49.168;9.848;2022-11-20T09:40:29;96079.25;;;11.11;93.58
40502;BME280;29631;49.168;9.848;2022-11-20T09:43:21;96100.88;;;11.20;93.15
40502;BME280;29631;49.168;9.848;2022-11-20T09:46:17;96111.41;;;11.20;92.77
40502;BME280;29631;49.168;9.848;2022-11-20T09:49:16;96111.06;;;11.16;93.85
40502;BME280;29631;49.168;9.848;2022-11-20T09:52:32;96108.19;;;11.18;94.38
40502;BME280;29631;49.168;9.848;2022-11-20T09:55:03;96085.19;;;11.07;94.15
40502;BME280;29631;49.168;9.848;2022-11-20T09:57:40;96098.53;;;11.12;93.48
40502;BME280;29631;49.168;9.848;2022-11-20T10:00:13;96087.53;;;11.15;93.70
40502;BME280;29631;49.168;9.848;2022-11-20T10:03:02;96091.56;;;11.17;93.38
40502;BME280;29631;49.168;9.848;2022-11-20T10:05:43;96097.63;;;11.18;94.08
40502;BME280;29631;49.168;9.848;2022-11-20T10:14:30;96101.41;;;11.40;93.70
40502;BME280;29631;49.168;9.848;2022-11-20T10:26:11;96089.53;;;11.49;94.54
40502;BME280;29631;49.168;9.848;2022-11-20T10:29:13;96098.41;;;11.54;94.25
40502;BME280;29631;49.168;9.848;2022-11-20T10:31:56;96085.28;;;11.48;93.48
40502;BME280;29631;49.168;9.848;2022-11-20T10:35:07;96086.16;;;11.59;93.52
40502;BME280;29631;49.168;9.848;2022-11-20T10:37:37;96103.25;;;11.68;93.33
40502;BME280;29631;49.168;9.848;2022-11-20T10:40:27;96084.00;;;11.68;94.40
40502;BME280;29631;49.168;9.848;2022-11-20T10:43:03;96086.97;;;11.71;94.42
40502;BME280;29631;49.168;9.848;2022-11-20T10:46:08;96098.63;;;11.82;94.01
40502;BME280;29631;49.168;9.848;2022-11-20T10:48:36;96083.44;;;11.77;93.92
40502;BME280;29631;49.168;9.848;2022-11-20T10:58:08;96080.72;;;11.84;94.30
40502;BME280;29631;49.168;9.848;2022-11-20T11:00:35;96071.84;;;11.78;94.60
40502;BME280;29631;49.168;9.848;2022-11-20T11:03:01;96070.81;;;11.79;94.30
40502;BME280;29631;49.168;9.848;2022-11-20T11:05:38;96086.66;;;11.91;94.18
40502;BME280;29631;49.168;9.848;2022-11-20T11:08:16;96070.03;;;11.90;93.87
40502;BME280;29631;49.168;9.848;2022-11-20T11:10:52;96081.41;;;12.02;93.94
40502;BME280;29631;49.168;9.848;2022-11-20T11:13:30;96052.69;;;11.94;94.48
40502;BME280;29631;49.168;9.848;2022-11-20T11:15:56;96066.03;;;11.99;93.60
40502;BME280;29631;49.168;9.848;2022-11-20T11:18:31;96072.00;;;11.95;94.37
40502;BME280;29631;49.168;9.848;2022-11-20T11:21:03;96060.97;;;11.98;93.69
40502;BME280;29631;49.168;9.848;2022-11-20T11:23:39;96076.03;;;12.09;94.87
40502;BME280;29631;49.168;9.848;2022-11-20T11:26:26;96068.78;;;12.04;94.38
40502;BME280;29631;49.168;9.848;2022-11-20T11:29:04;96063.94;;;12.01;94.40
40502;BME280;29631;49.168;9.848;2022-11-20T11:31:33;96038.81;;;11.99;94.63
40502;BME280;29631;49.168;9.848;2022-11-20T11:34:12;96040.88;;;11.97;94.08
40502;BME280;29631;49.168;9.848;2022-11-20T11:36:38;96054.91;;;12.09;93.91
40502;BME280;29631;49.168;9.848;2022-11-20T11:39:11;96043.19;;;11.93;93.36
40502;BME280;29631;49.168;9.848;2022-11-20T11:41:37;96052.13;;;12.15;94.12
40502;BME280;29631;49.168;9.848;2022-11-20T11:44:26;96024.31;;;12.01;94.59
40502;BME280;29631;49.168;9.848;2022-11-20T11:47:52;96047.44;;;12.17;94.53
40502;BME280;29631;49.168;9.848;2022-11-20T11:50:23;96038.81;;;12.10;94.34
40502;BME280;29631;49.168;9.848;2022-11-20T11:53:16;96036.88;;;12.17;93.84
40502;BME280;29631;49.168;9.848;2022-11-20T11:56:08;96027.66;;;12.08;94.50
40502;BME280;29631;49.168;9.848;2022-11-20T11:58:47;96025.94;;;12.14;93.73
40502;BME280;29631;49.168;9.848;2022-11-20T12:04:21;96044.22;;;12.15;94.26
40502;BME280;29631;49.168;9.848;2022-11-20T12:06:58;96043.28;;;12.21;93.90
40502;BME280;29631;49.168;9.848;2022-11-20T12:09:43;96043.09;;;12.23;93.61
40502;BME280;29631;49.168;9.848;2022-11-20T12:12:28;96025.16;;;12.13;94.21
40502;BME280;29631;49.168;9.848;2022-11-20T12:14:56;96038.00;;;12.21;94.24
40502;BME280;29631;49.168;9.848;2022-11-20T12:17:23;96042.38;;;12.27;94.37
40502;BME280;29631;49.168;9.848;2022-11-20T12:19:49;96015.72;;;12.17;93.44
40502;BME280;29631;49.168;9.848;2022-11-20T12:22:43;96049.28;;;12.28;93.75
40502;BME280;29631;49.168;9.848;2022-11-20T12:25:33;96035.94;;;12.23;93.24
40502;BME280;29631;49.168;9.848;2022-11-20T12:31:07;96028.38;;;12.15;93.35
40502;BME280;29631;49.168;9.848;2022-11-20T12:34:01;96036.41;;;12.20;93.56
40502;BME280;29631;49.168;9.848;2022-11-20T12:36:48;96027.44;;;12.21;93.54
40502;BME280;29631;49.168;9.848;2022-11-20T12:39:32;96030.66;;;12.23;93.25
40502;BME280;29631;49.168;9.848;2022-11-20T13:00:25;96038.00;;;12.21;92.67
40502;BME280;29631;49.168;9.848;2022-11-20T13:08:42;96029.41;;;12.26;93.30
40502;BME280;29631;49.168;9.848;2022-11-20T13:11:34;96030.66;;;12.23;92.70
40502;BME280;29631;49.168;9.848;2022-11-20T13:19:35;96020.44;;;12.27;93.26
40502;BME280;29631;49.168;9.848;2022-11-20T13:22:02;96023.78;;;12.33;93.19
40502;BME280;29631;49.168;9.848;2022-11-20T13:24:30;96024.69;;;12.39;92.62
40502;BME280;29631;49.168;9.848;2022-11-20T13:29:34;96028.00;;;12.46;92.27
40502;BME280;29631;49.168;9.848;2022-11-20T13:32:16;96024.66;;;12.50;92.06
40502;BME280;29631;49.168;9.848;2022-11-20T13:34:58;96016.63;;;12.57;92.21
40502;BME280;29631;49.168;9.848;2022-11-20T13:37:44;96014.06;;;12.62;91.94
40502;BME280;29631;49.168;9.848;2022-11-20T13:45:29;96008.78;;;12.62;91.48
40502;BME280;29631;49.168;9.848;2022-11-20T13:47:57;95999.16;;;12.56;91.38
40502;BME280;29631;49.168;9.848;2022-11-20T13:53:36;96012.00;;;12.64;92.17
40502;BME280;29631;49.168;9.848;2022-11-20T13:56:50;96003.94;;;12.59;91.31
40502;BME280;29631;49.168;9.848;2022-11-20T14:01:47;96019.72;;;12.54;91.00
40502;BME280;29631;49.168;9.848;2022-11-20T14:04:26;96017.41;;;12.57;91.88
40502;BME280;29631;49.168;9.848;2022-11-20T14:06:54;96046.25;;;12.59;91.09
40502;BME280;29631;49.168;9.848;2022-11-20T14:09:30;96026.50;;;12.61;90.68
40502;BME280;29631;49.168;9.848;2022-11-20T14:11:56;96011.69;;;12.49;91.28
40502;BME280;29631;49.168;9.848;2022-11-20T14:14:25;96009.84;;;12.49;91.04
40502;BME280;29631;49.168;9.848;2022-11-20T14:17:04;96016.03;;;12.55;90.99
40502;BME280;29631;49.168;9.848;2022-11-20T14:19:30;96010.06;;;12.59;90.64
40502;BME280;29631;49.168;9.848;2022-11-20T14:22:25;96000.84;;;12.62;91.02
40502;BME280;29631;49.168;9.848;2022-11-20T14:25:27;96010.25;;;12.69;91.74
40502;BME280;29631;49.168;9.848;2022-11-20T14:28:00;96002.13;;;12.71;90.53
40502;BME280;29631;49.168;9.848;2022-11-20T14:30:47;95992.09;;;12.73;90.83
40502;BME280;29631;49.168;9.848;2022-11-20T14:33:14;96005.88;;;12.86;91.46
40502;BME280;29631;49.168;9.848;2022-11-20T14:35:55;95992.84;;;12.85;90.93
40502;BME280;29631;49.168;9.848;2022-11-20T14:38:27;95992.84;;;12.85;90.50